MXY121 KHSV-KTPA
Flight info
| Callsign | MXY121 |
|---|---|
| Flight time | 1h 15m |
| Altitude | FL310 |
| Route | HSV4.VUZ J41 MGM SHADY ACORI.MAATY5 |
| Aircraft | E190/M-VGDW/C |
Departure
| Time | 2026-04-25 12:29 |
|---|---|
| Airport | Huntsville International Airport (KHSV) |
Arrival
| Time | 2026-04-25 13:44 |
|---|---|
| Airport | Tampa International Airport (KTPA) |
| Time | Latitude | Longitude | Altitude | Speed | Heading |
|---|---|---|---|---|---|
| 2026-04-25 11:55 | 34.64758 | -86.77523 | 639 ft | 0 kts | 277° |
| 2026-04-25 12:14 | 34.64757 | -86.77522 | 639 ft | 1 kts | 277° |
| 2026-04-25 12:15 | 34.64756 | -86.77506 | 639 ft | 3 kts | 277° |
| 2026-04-25 12:15 | 34.64754 | -86.77485 | 639 ft | 2 kts | 277° |
| 2026-04-25 12:15 | 34.64752 | -86.77462 | 639 ft | 3 kts | 260° |
| 2026-04-25 12:15 | 34.64762 | -86.77441 | 639 ft | 3 kts | 219° |
| 2026-04-25 12:16 | 34.64780 | -86.77432 | 639 ft | 2 kts | 187° |
| 2026-04-25 12:16 | 34.64781 | -86.77432 | 639 ft | 0 kts | 187° |
| 2026-04-25 12:19 | 34.64772 | -86.77434 | 639 ft | 5 kts | 187° |
| 2026-04-25 12:19 | 34.64691 | -86.77437 | 639 ft | 9 kts | 180° |
| 2026-04-25 12:19 | 34.64634 | -86.77437 | 639 ft | 8 kts | 180° |
| 2026-04-25 12:20 | 34.64588 | -86.77437 | 639 ft | 3 kts | 180° |
| 2026-04-25 12:20 | 34.64567 | -86.77437 | 639 ft | 3 kts | 180° |
| 2026-04-25 12:20 | 34.64561 | -86.77437 | 639 ft | 0 kts | 180° |
| 2026-04-25 12:21 | 34.64552 | -86.77437 | 639 ft | 4 kts | 180° |
| 2026-04-25 12:21 | 34.64508 | -86.77445 | 639 ft | 8 kts | 220° |
| 2026-04-25 12:21 | 34.64488 | -86.77497 | 639 ft | 8 kts | 262° |
| 2026-04-25 12:22 | 34.64487 | -86.77601 | 639 ft | 16 kts | 271° |
| 2026-04-25 12:22 | 34.64490 | -86.77718 | 639 ft | 12 kts | 271° |
| 2026-04-25 12:22 | 34.64492 | -86.77821 | 639 ft | 11 kts | 271° |
| 2026-04-25 12:22 | 34.64493 | -86.77902 | 639 ft | 7 kts | 271° |
| 2026-04-25 12:23 | 34.64502 | -86.77950 | 639 ft | 5 kts | 308° |
| 2026-04-25 12:23 | 34.64532 | -86.77969 | 639 ft | 6 kts | 344° |
| 2026-04-25 12:23 | 34.64583 | -86.77975 | 639 ft | 9 kts | 359° |
| 2026-04-25 12:23 | 34.64655 | -86.77973 | 639 ft | 12 kts | 1° |
| 2026-04-25 12:24 | 34.64744 | -86.77971 | 639 ft | 14 kts | 1° |
| 2026-04-25 12:24 | 34.64843 | -86.77970 | 639 ft | 15 kts | 1° |
| 2026-04-25 12:24 | 34.64949 | -86.77968 | 639 ft | 15 kts | 1° |
| 2026-04-25 12:24 | 34.65058 | -86.77966 | 639 ft | 16 kts | 1° |
| 2026-04-25 12:25 | 34.65153 | -86.77964 | 639 ft | 10 kts | 1° |
| 2026-04-25 12:25 | 34.65195 | -86.77964 | 639 ft | 4 kts | 1° |
| 2026-04-25 12:25 | 34.65226 | -86.77965 | 639 ft | 5 kts | 348° |
| 2026-04-25 12:25 | 34.65251 | -86.78005 | 639 ft | 8 kts | 277° |
| 2026-04-25 12:26 | 34.65251 | -86.78067 | 639 ft | 6 kts | 270° |
| 2026-04-25 12:26 | 34.65251 | -86.78090 | 639 ft | 0 kts | 270° |
| 2026-04-25 12:26 | 34.65251 | -86.78091 | 639 ft | 0 kts | 270° |
| 2026-04-25 12:27 | 34.65251 | -86.78092 | 639 ft | 2 kts | 270° |
| 2026-04-25 12:28 | 34.65251 | -86.78130 | 639 ft | 7 kts | 270° |
| 2026-04-25 12:28 | 34.65249 | -86.78194 | 639 ft | 8 kts | 247° |
| 2026-04-25 12:28 | 34.65187 | -86.78214 | 639 ft | 12 kts | 177° |
| 2026-04-25 12:28 | 34.65119 | -86.78214 | 639 ft | 18 kts | 181° |
| 2026-04-25 12:29 | 34.64720 | -86.78221 | 639 ft | 98 kts | 181° |
| 2026-04-25 12:29 | 34.63789 | -86.78236 | 643 ft | 167 kts | 181° |
| 2026-04-25 12:29 | 34.62526 | -86.78256 | 1002 ft | 192 kts | 181° |
| 2026-04-25 12:29 | 34.61164 | -86.78449 | 1383 ft | 200 kts | 189° |
| 2026-04-25 12:30 | 34.59803 | -86.78615 | 1724 ft | 194 kts | 183° |
| 2026-04-25 12:30 | 34.58478 | -86.78701 | 2061 ft | 189 kts | 182° |
| 2026-04-25 12:30 | 34.57171 | -86.78776 | 2403 ft | 188 kts | 182° |
| 2026-04-25 12:30 | 34.55844 | -86.78843 | 2903 ft | 196 kts | 182° |
| 2026-04-25 12:31 | 34.54419 | -86.78906 | 3437 ft | 212 kts | 182° |
| 2026-04-25 12:31 | 34.52929 | -86.79040 | 4019 ft | 216 kts | 185° |
| 2026-04-25 12:31 | 34.51416 | -86.79137 | 4649 ft | 221 kts | 182° |
| 2026-04-25 12:31 | 34.49797 | -86.79158 | 5093 ft | 246 kts | 181° |
| 2026-04-25 12:32 | 34.48093 | -86.79158 | 5737 ft | 246 kts | 181° |
| 2026-04-25 12:32 | 34.46360 | -86.79145 | 6297 ft | 254 kts | 181° |
| 2026-04-25 12:32 | 34.44563 | -86.79126 | 6806 ft | 263 kts | 181° |
| 2026-04-25 12:32 | 34.42716 | -86.79102 | 7311 ft | 269 kts | 181° |
| 2026-04-25 12:33 | 34.40828 | -86.79133 | 7809 ft | 273 kts | 185° |
| 2026-04-25 12:33 | 34.38939 | -86.79454 | 8255 ft | 279 kts | 192° |
| 2026-04-25 12:33 | 34.37019 | -86.79905 | 8609 ft | 283 kts | 193° |
| 2026-04-25 12:33 | 34.35088 | -86.80372 | 8937 ft | 285 kts | 193° |
| 2026-04-25 12:34 | 34.33126 | -86.80819 | 9183 ft | 288 kts | 192° |
| 2026-04-25 12:34 | 34.31164 | -86.81226 | 9495 ft | 287 kts | 191° |
| 2026-04-25 12:34 | 34.29189 | -86.81599 | 9819 ft | 288 kts | 191° |
| 2026-04-25 12:34 | 34.27866 | -86.81832 | 10023 ft | 290 kts | 191° |
| 2026-04-25 12:35 | 34.25140 | -86.82280 | 10442 ft | 309 kts | 190° |
| 2026-04-25 12:35 | 34.22935 | -86.82622 | 10839 ft | 330 kts | 189° |
| 2026-04-25 12:35 | 34.20622 | -86.82963 | 11308 ft | 339 kts | 189° |
| 2026-04-25 12:35 | 34.18262 | -86.83295 | 11811 ft | 345 kts | 189° |
| 2026-04-25 12:36 | 34.15865 | -86.83623 | 12419 ft | 348 kts | 189° |
| 2026-04-25 12:36 | 34.13445 | -86.83948 | 13047 ft | 354 kts | 189° |
| 2026-04-25 12:36 | 34.10989 | -86.84275 | 13673 ft | 358 kts | 189° |
| 2026-04-25 12:36 | 34.08503 | -86.84602 | 14301 ft | 361 kts | 189° |
| 2026-04-25 12:37 | 34.06005 | -86.84930 | 14925 ft | 364 kts | 189° |
| 2026-04-25 12:37 | 34.03477 | -86.85260 | 15553 ft | 367 kts | 188° |
| 2026-04-25 12:37 | 34.00943 | -86.85590 | 16177 ft | 369 kts | 188° |
| 2026-04-25 12:37 | 33.98381 | -86.85923 | 16803 ft | 372 kts | 188° |
| 2026-04-25 12:38 | 33.95809 | -86.86257 | 17427 ft | 375 kts | 188° |
| 2026-04-25 12:38 | 33.93205 | -86.86595 | 18055 ft | 378 kts | 188° |
| 2026-04-25 12:38 | 33.90587 | -86.86935 | 18663 ft | 381 kts | 188° |
| 2026-04-25 12:38 | 33.87941 | -86.87277 | 19264 ft | 384 kts | 188° |
| 2026-04-25 12:39 | 33.85283 | -86.87621 | 19845 ft | 388 kts | 189° |
| 2026-04-25 12:39 | 33.82578 | -86.87972 | 20361 ft | 395 kts | 189° |
| 2026-04-25 12:39 | 33.79828 | -86.88329 | 20866 ft | 401 kts | 189° |
| 2026-04-25 12:39 | 33.77042 | -86.88691 | 21367 ft | 406 kts | 189° |
| 2026-04-25 12:40 | 33.74221 | -86.89057 | 21869 ft | 411 kts | 189° |
| 2026-04-25 12:40 | 33.71373 | -86.89424 | 22370 ft | 415 kts | 189° |
| 2026-04-25 12:40 | 33.68474 | -86.89503 | 22867 ft | 422 kts | 180° |
| 2026-04-25 12:40 | 33.65551 | -86.89059 | 23374 ft | 427 kts | 173° |
| 2026-04-25 12:41 | 33.62632 | -86.88287 | 23881 ft | 432 kts | 169° |
| 2026-04-25 12:41 | 33.59724 | -86.87317 | 24386 ft | 436 kts | 166° |
| 2026-04-25 12:41 | 33.56819 | -86.86228 | 24856 ft | 441 kts | 165° |
| 2026-04-25 12:41 | 33.53907 | -86.85066 | 25291 ft | 445 kts | 164° |
| 2026-04-25 12:42 | 33.50974 | -86.83857 | 25719 ft | 448 kts | 164° |
| 2026-04-25 12:42 | 33.49021 | -86.83041 | 26002 ft | 449 kts | 164° |
| 2026-04-25 12:42 | 33.45087 | -86.81386 | 26547 ft | 452 kts | 164° |
| 2026-04-25 12:42 | 33.42123 | -86.80139 | 26927 ft | 453 kts | 164° |
| 2026-04-25 12:43 | 33.39141 | -86.78887 | 27302 ft | 455 kts | 164° |
| 2026-04-25 12:43 | 33.36156 | -86.77641 | 27659 ft | 457 kts | 165° |
| 2026-04-25 12:43 | 33.30149 | -86.75150 | 28352 ft | 459 kts | 165° |
| 2026-04-25 12:44 | 33.27137 | -86.73909 | 28679 ft | 460 kts | 165° |
| 2026-04-25 12:44 | 33.24110 | -86.72668 | 29005 ft | 461 kts | 165° |
| 2026-04-25 12:44 | 33.18051 | -86.70196 | 29591 ft | 463 kts | 165° |
| 2026-04-25 12:45 | 33.14999 | -86.68957 | 29834 ft | 464 kts | 165° |
| 2026-04-25 12:45 | 33.11944 | -86.67721 | 30041 ft | 466 kts | 165° |
| 2026-04-25 12:45 | 33.05778 | -86.65233 | 30400 ft | 470 kts | 165° |
| 2026-04-25 12:46 | 33.02688 | -86.63990 | 30564 ft | 471 kts | 166° |
| 2026-04-25 12:46 | 32.99583 | -86.62741 | 30705 ft | 472 kts | 166° |
| 2026-04-25 12:46 | 32.96475 | -86.61492 | 30831 ft | 472 kts | 166° |
| 2026-04-25 12:46 | 32.93370 | -86.60246 | 30918 ft | 472 kts | 165° |
| 2026-04-25 12:47 | 32.87154 | -86.57755 | 30935 ft | 472 kts | 165° |
| 2026-04-25 12:47 | 32.80952 | -86.55273 | 30932 ft | 471 kts | 165° |
| 2026-04-25 12:48 | 32.74762 | -86.52801 | 30930 ft | 471 kts | 165° |
| 2026-04-25 12:48 | 32.68569 | -86.50333 | 30927 ft | 471 kts | 165° |
| 2026-04-25 12:49 | 32.62368 | -86.47866 | 30922 ft | 471 kts | 165° |
| 2026-04-25 12:49 | 32.56157 | -86.45398 | 30918 ft | 472 kts | 165° |
| 2026-04-25 12:50 | 32.49946 | -86.42934 | 30914 ft | 472 kts | 165° |
| 2026-04-25 12:50 | 32.43728 | -86.40470 | 30911 ft | 473 kts | 165° |
| 2026-04-25 12:51 | 32.37499 | -86.38006 | 30913 ft | 473 kts | 165° |
| 2026-04-25 12:51 | 32.31262 | -86.35541 | 30920 ft | 473 kts | 165° |
| 2026-04-25 12:52 | 32.25038 | -86.33045 | 30944 ft | 475 kts | 162° |
| 2026-04-25 12:52 | 32.22106 | -86.31223 | 30946 ft | 481 kts | 150° |
| 2026-04-25 12:52 | 32.19453 | -86.28807 | 30952 ft | 485 kts | 141° |
| 2026-04-25 12:53 | 32.14833 | -86.22979 | 30953 ft | 489 kts | 131° |
| 2026-04-25 12:53 | 32.10790 | -86.16557 | 30953 ft | 489 kts | 127° |
| 2026-04-25 12:54 | 32.07816 | -86.11671 | 30952 ft | 487 kts | 131° |
| 2026-04-25 12:54 | 32.02982 | -86.06145 | 30963 ft | 485 kts | 142° |
| 2026-04-25 12:55 | 31.98590 | -86.02041 | 30964 ft | 484 kts | 145° |
| 2026-04-25 12:55 | 31.92229 | -85.96684 | 30967 ft | 483 kts | 148° |
| 2026-04-25 12:56 | 31.86654 | -85.92301 | 30967 ft | 482 kts | 149° |
| 2026-04-25 12:56 | 31.81137 | -85.87854 | 30967 ft | 483 kts | 146° |
| 2026-04-25 12:57 | 31.75794 | -85.83099 | 30963 ft | 484 kts | 144° |
| 2026-04-25 12:57 | 31.70549 | -85.78149 | 30957 ft | 484 kts | 142° |
| 2026-04-25 12:58 | 31.65375 | -85.73092 | 30951 ft | 485 kts | 142° |
| 2026-04-25 12:58 | 31.60251 | -85.67983 | 30946 ft | 485 kts | 141° |
| 2026-04-25 12:59 | 31.55149 | -85.62835 | 30950 ft | 485 kts | 141° |
| 2026-04-25 12:59 | 31.50059 | -85.57666 | 30956 ft | 485 kts | 141° |
| 2026-04-25 13:00 | 31.45815 | -85.53343 | 30959 ft | 486 kts | 140° |
| 2026-04-25 13:00 | 31.39883 | -85.47291 | 30970 ft | 486 kts | 140° |
| 2026-04-25 13:01 | 31.34804 | -85.42109 | 30984 ft | 486 kts | 140° |
| 2026-04-25 13:01 | 31.29716 | -85.36919 | 30985 ft | 487 kts | 140° |
| 2026-04-25 13:02 | 31.24619 | -85.31725 | 30983 ft | 487 kts | 140° |
| 2026-04-25 13:02 | 31.19524 | -85.26539 | 30973 ft | 487 kts | 140° |
| 2026-04-25 13:03 | 31.14422 | -85.21351 | 30962 ft | 487 kts | 140° |
| 2026-04-25 13:03 | 31.09323 | -85.16175 | 30951 ft | 487 kts | 140° |
| 2026-04-25 13:04 | 31.04216 | -85.10998 | 30943 ft | 487 kts | 140° |
| 2026-04-25 13:04 | 30.99107 | -85.05826 | 30936 ft | 488 kts | 139° |
| 2026-04-25 13:05 | 30.93990 | -85.00654 | 30933 ft | 488 kts | 139° |
| 2026-04-25 13:05 | 30.88870 | -84.95485 | 30933 ft | 488 kts | 139° |
| 2026-04-25 13:06 | 30.83749 | -84.90323 | 30936 ft | 488 kts | 139° |
| 2026-04-25 13:06 | 30.78630 | -84.85170 | 30937 ft | 488 kts | 139° |
| 2026-04-25 13:07 | 30.73505 | -84.80026 | 30942 ft | 488 kts | 139° |
| 2026-04-25 13:07 | 30.68383 | -84.74896 | 30950 ft | 488 kts | 139° |
| 2026-04-25 13:08 | 30.63252 | -84.69765 | 30958 ft | 488 kts | 139° |
| 2026-04-25 13:08 | 30.58116 | -84.64637 | 30964 ft | 488 kts | 139° |
| 2026-04-25 13:09 | 30.52988 | -84.59522 | 30967 ft | 488 kts | 139° |
| 2026-04-25 13:09 | 30.47851 | -84.54405 | 30965 ft | 488 kts | 139° |
| 2026-04-25 13:10 | 30.42714 | -84.49294 | 30963 ft | 487 kts | 139° |
| 2026-04-25 13:10 | 30.37579 | -84.44191 | 30960 ft | 487 kts | 139° |
| 2026-04-25 13:11 | 30.32447 | -84.39098 | 30959 ft | 487 kts | 139° |
| 2026-04-25 13:11 | 30.27308 | -84.34001 | 30959 ft | 487 kts | 139° |
| 2026-04-25 13:12 | 30.22173 | -84.28914 | 30958 ft | 487 kts | 138° |
| 2026-04-25 13:12 | 30.17910 | -84.24695 | 30958 ft | 487 kts | 138° |
| 2026-04-25 13:13 | 30.11908 | -84.18763 | 30958 ft | 487 kts | 138° |
| 2026-04-25 13:13 | 30.06768 | -84.13690 | 30957 ft | 487 kts | 138° |
| 2026-04-25 13:14 | 30.04193 | -84.11150 | 30731 ft | 490 kts | 138° |
| 2026-04-25 13:14 | 30.01605 | -84.08600 | 30483 ft | 490 kts | 138° |
| 2026-04-25 13:14 | 29.99020 | -84.06055 | 30201 ft | 489 kts | 138° |
| 2026-04-25 13:14 | 29.96438 | -84.03514 | 29867 ft | 491 kts | 138° |
| 2026-04-25 13:15 | 29.93863 | -84.00981 | 29545 ft | 491 kts | 138° |
| 2026-04-25 13:15 | 29.91254 | -83.98416 | 29239 ft | 490 kts | 138° |
| 2026-04-25 13:15 | 29.88670 | -83.95878 | 28947 ft | 489 kts | 138° |
| 2026-04-25 13:15 | 29.86093 | -83.93349 | 28709 ft | 487 kts | 138° |
| 2026-04-25 13:16 | 29.83472 | -83.90895 | 28519 ft | 486 kts | 141° |
| 2026-04-25 13:16 | 29.80727 | -83.88650 | 28343 ft | 485 kts | 145° |
| 2026-04-25 13:16 | 29.77894 | -83.86553 | 28170 ft | 485 kts | 147° |
| 2026-04-25 13:16 | 29.75009 | -83.84557 | 28022 ft | 484 kts | 149° |
| 2026-04-25 13:17 | 29.72097 | -83.82631 | 27893 ft | 483 kts | 150° |
| 2026-04-25 13:17 | 29.69175 | -83.80752 | 27767 ft | 482 kts | 150° |
| 2026-04-25 13:17 | 29.66243 | -83.78896 | 27643 ft | 481 kts | 151° |
| 2026-04-25 13:17 | 29.63319 | -83.77060 | 27533 ft | 480 kts | 151° |
| 2026-04-25 13:18 | 29.60389 | -83.75227 | 27431 ft | 480 kts | 151° |
| 2026-04-25 13:18 | 29.57464 | -83.73397 | 27330 ft | 479 kts | 151° |
| 2026-04-25 13:18 | 29.54543 | -83.71566 | 27230 ft | 479 kts | 151° |
| 2026-04-25 13:18 | 29.51637 | -83.69739 | 27131 ft | 478 kts | 151° |
| 2026-04-25 13:19 | 29.48726 | -83.67904 | 27038 ft | 477 kts | 151° |
| 2026-04-25 13:19 | 29.45826 | -83.66071 | 26969 ft | 476 kts | 151° |
| 2026-04-25 13:19 | 29.42938 | -83.64240 | 26958 ft | 475 kts | 151° |
| 2026-04-25 13:19 | 29.41016 | -83.63020 | 26958 ft | 475 kts | 151° |
| 2026-04-25 13:20 | 29.37176 | -83.60577 | 26960 ft | 475 kts | 151° |
| 2026-04-25 13:20 | 29.34290 | -83.58737 | 26960 ft | 475 kts | 151° |
| 2026-04-25 13:20 | 29.31409 | -83.56899 | 26961 ft | 475 kts | 150° |
| 2026-04-25 13:20 | 29.28525 | -83.55058 | 26961 ft | 476 kts | 151° |
| 2026-04-25 13:21 | 29.25646 | -83.53219 | 26961 ft | 476 kts | 151° |
| 2026-04-25 13:21 | 29.22758 | -83.51376 | 26961 ft | 476 kts | 151° |
| 2026-04-25 13:21 | 29.19872 | -83.49537 | 26961 ft | 476 kts | 151° |
| 2026-04-25 13:21 | 29.16983 | -83.47698 | 26961 ft | 475 kts | 151° |
| 2026-04-25 13:22 | 29.14131 | -83.45884 | 26924 ft | 467 kts | 151° |
| 2026-04-25 13:22 | 29.11313 | -83.44092 | 26563 ft | 461 kts | 151° |
| 2026-04-25 13:22 | 29.08540 | -83.42330 | 26073 ft | 451 kts | 151° |
| 2026-04-25 13:23 | 29.03269 | -83.38981 | 24978 ft | 419 kts | 152° |
| 2026-04-25 13:23 | 29.00764 | -83.37390 | 24425 ft | 407 kts | 152° |
| 2026-04-25 13:23 | 28.98313 | -83.35833 | 23871 ft | 399 kts | 152° |
| 2026-04-25 13:23 | 28.95924 | -83.34317 | 23320 ft | 391 kts | 152° |
| 2026-04-25 13:24 | 28.93573 | -83.32826 | 22769 ft | 384 kts | 152° |
| 2026-04-25 13:24 | 28.91264 | -83.31364 | 22180 ft | 378 kts | 152° |
| 2026-04-25 13:24 | 28.88981 | -83.29918 | 21559 ft | 373 kts | 153° |
| 2026-04-25 13:24 | 28.86731 | -83.28495 | 20935 ft | 368 kts | 153° |
| 2026-04-25 13:25 | 28.84518 | -83.27096 | 20312 ft | 363 kts | 153° |
| 2026-04-25 13:25 | 28.82323 | -83.25709 | 19686 ft | 359 kts | 153° |
| 2026-04-25 13:25 | 28.80162 | -83.24343 | 19063 ft | 354 kts | 153° |
| 2026-04-25 13:25 | 28.78022 | -83.22992 | 18438 ft | 350 kts | 153° |
| 2026-04-25 13:26 | 28.75906 | -83.21657 | 17814 ft | 346 kts | 153° |
| 2026-04-25 13:26 | 28.73816 | -83.20339 | 17189 ft | 342 kts | 153° |
| 2026-04-25 13:26 | 28.71747 | -83.19035 | 16565 ft | 339 kts | 153° |
| 2026-04-25 13:26 | 28.69699 | -83.17745 | 15941 ft | 336 kts | 153° |
| 2026-04-25 13:27 | 28.67669 | -83.16467 | 15317 ft | 333 kts | 153° |
| 2026-04-25 13:27 | 28.65652 | -83.15198 | 14691 ft | 330 kts | 153° |
| 2026-04-25 13:27 | 28.63658 | -83.13943 | 14068 ft | 327 kts | 152° |
| 2026-04-25 13:27 | 28.61677 | -83.12696 | 13444 ft | 325 kts | 152° |
| 2026-04-25 13:28 | 28.59709 | -83.11458 | 12820 ft | 323 kts | 152° |
| 2026-04-25 13:28 | 28.58408 | -83.10641 | 12407 ft | 321 kts | 152° |
| 2026-04-25 13:28 | 28.55832 | -83.09022 | 11791 ft | 315 kts | 152° |
| 2026-04-25 13:28 | 28.53927 | -83.07826 | 11432 ft | 312 kts | 152° |
| 2026-04-25 13:29 | 28.52042 | -83.06641 | 11237 ft | 309 kts | 152° |
| 2026-04-25 13:29 | 28.50168 | -83.05464 | 11037 ft | 309 kts | 152° |
| 2026-04-25 13:29 | 28.48293 | -83.04287 | 10788 ft | 306 kts | 152° |
| 2026-04-25 13:30 | 28.44620 | -83.01982 | 10219 ft | 300 kts | 152° |
| 2026-04-25 13:30 | 28.42811 | -83.00849 | 9870 ft | 296 kts | 152° |
| 2026-04-25 13:30 | 28.41023 | -82.99729 | 9520 ft | 292 kts | 152° |
| 2026-04-25 13:31 | 28.37521 | -82.97536 | 8821 ft | 285 kts | 152° |
| 2026-04-25 13:31 | 28.35798 | -82.96458 | 8470 ft | 281 kts | 152° |
| 2026-04-25 13:31 | 28.34097 | -82.95394 | 8117 ft | 279 kts | 152° |
| 2026-04-25 13:31 | 28.32415 | -82.94342 | 7737 ft | 273 kts | 152° |
| 2026-04-25 13:32 | 28.30773 | -82.93315 | 7358 ft | 266 kts | 152° |
| 2026-04-25 13:32 | 28.29221 | -82.92234 | 6962 ft | 261 kts | 143° |
| 2026-04-25 13:32 | 28.28080 | -82.90652 | 6585 ft | 261 kts | 120° |
| 2026-04-25 13:32 | 28.27520 | -82.88703 | 6235 ft | 262 kts | 102° |
| 2026-04-25 13:33 | 28.27333 | -82.86665 | 5906 ft | 259 kts | 94° |
| 2026-04-25 13:33 | 28.27325 | -82.84636 | 5663 ft | 256 kts | 90° |
| 2026-04-25 13:33 | 28.27390 | -82.82630 | 5413 ft | 254 kts | 88° |
| 2026-04-25 13:33 | 28.27447 | -82.81296 | 5247 ft | 253 kts | 88° |
| 2026-04-25 13:34 | 28.27564 | -82.78674 | 5115 ft | 249 kts | 88° |
| 2026-04-25 13:34 | 28.27644 | -82.76721 | 5041 ft | 249 kts | 88° |
| 2026-04-25 13:34 | 28.27715 | -82.74771 | 5003 ft | 248 kts | 89° |
| 2026-04-25 13:34 | 28.27778 | -82.72828 | 4997 ft | 247 kts | 89° |
| 2026-04-25 13:35 | 28.27835 | -82.70879 | 4994 ft | 248 kts | 89° |
| 2026-04-25 13:35 | 28.27888 | -82.68928 | 4994 ft | 248 kts | 89° |
| 2026-04-25 13:35 | 28.27939 | -82.66981 | 4989 ft | 247 kts | 89° |
| 2026-04-25 13:35 | 28.27989 | -82.65037 | 4629 ft | 246 kts | 89° |
| 2026-04-25 13:36 | 28.28011 | -82.63107 | 4258 ft | 244 kts | 91° |
| 2026-04-25 13:36 | 28.28002 | -82.61199 | 3884 ft | 242 kts | 92° |
| 2026-04-25 13:36 | 28.27988 | -82.59314 | 3608 ft | 236 kts | 92° |
| 2026-04-25 13:36 | 28.27982 | -82.57476 | 3353 ft | 231 kts | 92° |
| 2026-04-25 13:37 | 28.27982 | -82.55677 | 3152 ft | 224 kts | 92° |
| 2026-04-25 13:37 | 28.27984 | -82.53959 | 3065 ft | 213 kts | 93° |
| 2026-04-25 13:37 | 28.27635 | -82.52411 | 3030 ft | 198 kts | 117° |
| 2026-04-25 13:37 | 28.26715 | -82.51324 | 2993 ft | 189 kts | 146° |
| 2026-04-25 13:38 | 28.25489 | -82.50953 | 2987 ft | 183 kts | 177° |
| 2026-04-25 13:38 | 28.24277 | -82.51279 | 3074 ft | 177 kts | 197° |
| 2026-04-25 13:38 | 28.23129 | -82.51792 | 3008 ft | 176 kts | 199° |
| 2026-04-25 13:38 | 28.21988 | -82.52214 | 2983 ft | 169 kts | 194° |
| 2026-04-25 13:39 | 28.20850 | -82.52474 | 2988 ft | 166 kts | 188° |
| 2026-04-25 13:39 | 28.19705 | -82.52578 | 2991 ft | 165 kts | 182° |
| 2026-04-25 13:39 | 28.18588 | -82.52558 | 3091 ft | 159 kts | 177° |
| 2026-04-25 13:39 | 28.17458 | -82.52465 | 3015 ft | 163 kts | 175° |
| 2026-04-25 13:40 | 28.16337 | -82.52358 | 2992 ft | 162 kts | 175° |
| 2026-04-25 13:40 | 28.15218 | -82.52276 | 2991 ft | 161 kts | 176° |
| 2026-04-25 13:40 | 28.14100 | -82.52240 | 2996 ft | 161 kts | 178° |
| 2026-04-25 13:40 | 28.12981 | -82.52253 | 3010 ft | 162 kts | 180° |
| 2026-04-25 13:41 | 28.11863 | -82.52301 | 2849 ft | 160 kts | 181° |
| 2026-04-25 13:41 | 28.10759 | -82.52367 | 2570 ft | 159 kts | 182° |
| 2026-04-25 13:41 | 28.09658 | -82.52432 | 2267 ft | 159 kts | 182° |
| 2026-04-25 13:41 | 28.08554 | -82.52485 | 1988 ft | 158 kts | 181° |
| 2026-04-25 13:42 | 28.07514 | -82.52527 | 1773 ft | 145 kts | 181° |
| 2026-04-25 13:42 | 28.06510 | -82.52560 | 1538 ft | 144 kts | 181° |
| 2026-04-25 13:42 | 28.05515 | -82.52592 | 1336 ft | 143 kts | 181° |
| 2026-04-25 13:42 | 28.04523 | -82.52622 | 1166 ft | 143 kts | 181° |
| 2026-04-25 13:43 | 28.03535 | -82.52656 | 995 ft | 142 kts | 181° |
| 2026-04-25 13:43 | 28.02546 | -82.52690 | 821 ft | 143 kts | 181° |
| 2026-04-25 13:43 | 28.01556 | -82.52724 | 643 ft | 143 kts | 181° |
| 2026-04-25 13:43 | 28.00562 | -82.52756 | 461 ft | 144 kts | 181° |
| 2026-04-25 13:44 | 27.99569 | -82.52786 | 245 ft | 140 kts | 181° |
| 2026-04-25 13:44 | 27.98618 | -82.52821 | 43 ft | 132 kts | 182° |
| 2026-04-25 13:44 | 27.97797 | -82.52853 | 36 ft | 93 kts | 182° |
| 2026-04-25 13:44 | 27.97385 | -82.52870 | 36 ft | 32 kts | 182° |
| 2026-04-25 13:45 | 27.97242 | -82.52878 | 36 ft | 12 kts | 195° |
| 2026-04-25 13:45 | 27.97208 | -82.52926 | 36 ft | 7 kts | 263° |
| 2026-04-25 13:45 | 27.97212 | -82.52976 | 36 ft | 6 kts | 294° |
| 2026-04-25 13:45 | 27.97244 | -82.53001 | 36 ft | 6 kts | 351° |
| 2026-04-25 13:46 | 27.97292 | -82.53002 | 36 ft | 8 kts | 0° |
| 2026-04-25 13:46 | 27.97354 | -82.53001 | 36 ft | 10 kts | 1° |
| 2026-04-25 13:46 | 27.97430 | -82.52999 | 36 ft | 12 kts | 1° |
| 2026-04-25 13:46 | 27.97521 | -82.52995 | 36 ft | 14 kts | 2° |
| 2026-04-25 13:47 | 27.97624 | -82.52991 | 36 ft | 16 kts | 2° |
| 2026-04-25 13:47 | 27.97737 | -82.52987 | 36 ft | 16 kts | 2° |
| 2026-04-25 13:47 | 27.97848 | -82.52983 | 36 ft | 16 kts | 1° |
| 2026-04-25 13:47 | 27.97955 | -82.52980 | 36 ft | 15 kts | 1° |
| 2026-04-25 13:48 | 27.98059 | -82.52977 | 36 ft | 15 kts | 1° |
| 2026-04-25 13:48 | 27.98159 | -82.52974 | 36 ft | 14 kts | 2° |
| 2026-04-25 13:48 | 27.98255 | -82.52971 | 36 ft | 14 kts | 2° |
| 2026-04-25 13:48 | 27.98342 | -82.52967 | 36 ft | 8 kts | 2° |
| 2026-04-25 13:49 | 27.98397 | -82.52973 | 36 ft | 8 kts | 340° |
| 2026-04-25 13:49 | 27.98440 | -82.53008 | 36 ft | 7 kts | 316° |
| 2026-04-25 13:49 | 27.98475 | -82.53050 | 36 ft | 8 kts | 313° |
| 2026-04-25 13:49 | 27.98511 | -82.53097 | 36 ft | 7 kts | 304° |
| 2026-04-25 13:50 | 27.98511 | -82.53148 | 36 ft | 7 kts | 232° |
| 2026-04-25 13:50 | 27.98470 | -82.53186 | 36 ft | 8 kts | 228° |
| 2026-04-25 13:50 | 27.98459 | -82.53247 | 36 ft | 9 kts | 272° |
| 2026-04-25 13:50 | 27.98461 | -82.53311 | 36 ft | 7 kts | 271° |
| 2026-04-25 13:51 | 27.98455 | -82.53356 | 36 ft | 6 kts | 232° |
| 2026-04-25 13:51 | 27.98414 | -82.53370 | 36 ft | 7 kts | 183° |
| 2026-04-25 13:51 | 27.98365 | -82.53370 | 36 ft | 8 kts | 180° |
| 2026-04-25 13:51 | 27.98313 | -82.53371 | 36 ft | 5 kts | 181° |
| 2026-04-25 13:52 | 27.98290 | -82.53371 | 36 ft | 4 kts | 171° |
| 2026-04-25 13:52 | 27.98273 | -82.53351 | 36 ft | 4 kts | 102° |
| 2026-04-25 13:52 | 27.98271 | -82.53323 | 36 ft | 2 kts | 94° |
| 2026-04-25 13:52 | 27.98271 | -82.53313 | 36 ft | 0 kts | 94° |
| 2026-04-25 13:53 | 27.98271 | -82.53311 | 36 ft | 0 kts | 94° |